sensor_id;sensor_type;location;lat;lon;timestamp;temperature;humidity
40808;DHT22;26523;52.504;13.498;2023-05-10T00:00:21;11.60;89.10
40808;DHT22;26523;52.504;13.498;2023-05-10T00:02:48;11.60;89.30
40808;DHT22;26523;52.504;13.498;2023-05-10T00:05:13;11.50;89.40
40808;DHT22;26523;52.504;13.498;2023-05-10T00:07:39;11.50;89.60
40808;DHT22;26523;52.504;13.498;2023-05-10T00:10:05;11.40;89.90
40808;DHT22;26523;52.504;13.498;2023-05-10T00:12:31;11.40;90.00
40808;DHT22;26523;52.504;13.498;2023-05-10T00:14:56;11.40;90.10
40808;DHT22;26523;52.504;13.498;2023-05-10T00:17:22;11.40;90.20
40808;DHT22;26523;52.504;13.498;2023-05-10T00:19:48;11.30;90.10
40808;DHT22;26523;52.504;13.498;2023-05-10T00:22:13;11.30;90.50
40808;DHT22;26523;52.504;13.498;2023-05-10T00:24:39;11.30;90.40
40808;DHT22;26523;52.504;13.498;2023-05-10T00:27:05;11.20;90.50
40808;DHT22;26523;52.504;13.498;2023-05-10T00:29:30;11.10;90.60
40808;DHT22;26523;52.504;13.498;2023-05-10T00:31:57;11.00;90.80
40808;DHT22;26523;52.504;13.498;2023-05-10T00:34:22;10.90;91.00
40808;DHT22;26523;52.504;13.498;2023-05-10T00:36:48;10.90;91.40
40808;DHT22;26523;52.504;13.498;2023-05-10T00:39:14;10.70;91.60
40808;DHT22;26523;52.504;13.498;2023-05-10T00:41:39;10.70;91.80
40808;DHT22;26523;52.504;13.498;2023-05-10T00:44:05;10.60;92.10
40808;DHT22;26523;52.504;13.498;2023-05-10T00:46:31;10.60;92.30
40808;DHT22;26523;52.504;13.498;2023-05-10T00:48:57;10.50;92.40
40808;DHT22;26523;52.504;13.498;2023-05-10T00:51:23;10.50;92.80
40808;DHT22;26523;52.504;13.498;2023-05-10T00:53:49;10.40;92.90
40808;DHT22;26523;52.504;13.498;2023-05-10T00:56:16;10.30;93.10
40808;DHT22;26523;52.504;13.498;2023-05-10T00:58:42;10.30;93.40
40808;DHT22;26523;52.504;13.498;2023-05-10T01:01:09;10.30;93.50
40808;DHT22;26523;52.504;13.498;2023-05-10T01:03:36;10.20;93.90
40808;DHT22;26523;52.504;13.498;2023-05-10T01:06:01;10.10;94.00
40808;DHT22;26523;52.504;13.498;2023-05-10T01:08:27;10.10;94.30
40808;DHT22;26523;52.504;13.498;2023-05-10T01:10:54;10.00;94.50
40808;DHT22;26523;52.504;13.498;2023-05-10T01:13:37;9.90;94.80
40808;DHT22;26523;52.504;13.498;2023-05-10T01:16:04;9.90;95.20
40808;DHT22;26523;52.504;13.498;2023-05-10T01:18:31;9.90;95.40
40808;DHT22;26523;52.504;13.498;2023-05-10T01:21:37;9.90;95.70
40808;DHT22;26523;52.504;13.498;2023-05-10T01:27:33;9.70;96.60
40808;DHT22;26523;52.504;13.498;2023-05-10T01:33:16;9.70;97.20
40808;DHT22;26523;52.504;13.498;2023-05-10T01:35:51;9.70;97.30
40808;DHT22;26523;52.504;13.498;2023-05-10T01:39:10;9.70;97.50
40808;DHT22;26523;52.504;13.498;2023-05-10T01:44:29;9.60;98.00
40808;DHT22;26523;52.504;13.498;2023-05-10T01:47:04;9.50;98.50
40808;DHT22;26523;52.504;13.498;2023-05-10T01:49:36;9.50;98.80
40808;DHT22;26523;52.504;13.498;2023-05-10T01:52:10;9.50;98.80
40808;DHT22;26523;52.504;13.498;2023-05-10T01:54:42;9.50;99.00
40808;DHT22;26523;52.504;13.498;2023-05-10T01:57:10;9.50;99.20
40808;DHT22;26523;52.504;13.498;2023-05-10T01:59:40;9.50;99.30
40808;DHT22;26523;52.504;13.498;2023-05-10T02:02:08;9.40;99.60
40808;DHT22;26523;52.504;13.498;2023-05-10T02:04:38;9.40;99.80
40808;DHT22;26523;52.504;13.498;2023-05-10T02:07:05;9.30;99.90
40808;DHT22;26523;52.504;13.498;2023-05-10T02:09:33;9.40;99.90
40808;DHT22;26523;52.504;13.498;2023-05-10T02:12:00;9.40;99.90
40808;DHT22;26523;52.504;13.498;2023-05-10T02:14:30;9.30;99.90
40808;DHT22;26523;52.504;13.498;2023-05-10T02:16:58;9.30;99.90
40808;DHT22;26523;52.504;13.498;2023-05-10T02:19:25;9.30;99.90
40808;DHT22;26523;52.504;13.498;2023-05-10T02:21:51;9.30;99.90
40808;DHT22;26523;52.504;13.498;2023-05-10T02:24:17;9.30;99.90
40808;DHT22;26523;52.504;13.498;2023-05-10T02:26:45;9.30;99.90
40808;DHT22;26523;52.504;13.498;2023-05-10T02:29:12;9.20;99.90
40808;DHT22;26523;52.504;13.498;2023-05-10T02:31:39;9.20;99.90
40808;DHT22;26523;52.504;13.498;2023-05-10T02:34:06;9.20;99.90
40808;DHT22;26523;52.504;13.498;2023-05-10T02:36:33;9.10;99.90
40808;DHT22;26523;52.504;13.498;2023-05-10T02:39:00;9.10;99.90
40808;DHT22;26523;52.504;13.498;2023-05-10T02:41:27;9.10;99.90
40808;DHT22;26523;52.504;13.498;2023-05-10T02:43:57;9.10;99.90
40808;DHT22;26523;52.504;13.498;2023-05-10T02:46:24;9.00;99.90
40808;DHT22;26523;52.504;13.498;2023-05-10T02:48:50;9.00;99.90
40808;DHT22;26523;52.504;13.498;2023-05-10T02:51:16;9.00;99.90
40808;DHT22;26523;52.504;13.498;2023-05-10T02:53:45;9.00;99.90
40808;DHT22;26523;52.504;13.498;2023-05-10T02:56:14;8.90;99.90
40808;DHT22;26523;52.504;13.498;2023-05-10T02:58:40;8.80;99.90
40808;DHT22;26523;52.504;13.498;2023-05-10T03:01:06;8.80;99.90
40808;DHT22;26523;52.504;13.498;2023-05-10T03:03:33;8.80;99.90
40808;DHT22;26523;52.504;13.498;2023-05-10T03:05:58;8.80;99.90
40808;DHT22;26523;52.504;13.498;2023-05-10T03:08:24;8.80;99.90
40808;DHT22;26523;52.504;13.498;2023-05-10T03:11:09;8.80;99.90
40808;DHT22;26523;52.504;13.498;2023-05-10T03:14:10;8.80;99.90
40808;DHT22;26523;52.504;13.498;2023-05-10T03:16:45;8.80;99.90
40808;DHT22;26523;52.504;13.498;2023-05-10T03:19:21;8.80;99.90
40808;DHT22;26523;52.504;13.498;2023-05-10T03:21:50;8.70;99.90
40808;DHT22;26523;52.504;13.498;2023-05-10T03:24:21;8.70;99.90
40808;DHT22;26523;52.504;13.498;2023-05-10T03:26:49;8.70;99.90
40808;DHT22;26523;52.504;13.498;2023-05-10T03:29:15;8.80;99.90
40808;DHT22;26523;52.504;13.498;2023-05-10T03:31:42;8.70;99.90
40808;DHT22;26523;52.504;13.498;2023-05-10T03:34:08;8.70;99.90
40808;DHT22;26523;52.504;13.498;2023-05-10T03:36:33;8.70;99.90
40808;DHT22;26523;52.504;13.498;2023-05-10T03:38:59;8.70;99.90
40808;DHT22;26523;52.504;13.498;2023-05-10T03:41:25;8.80;99.90
40808;DHT22;26523;52.504;13.498;2023-05-10T03:43:51;8.70;99.90
40808;DHT22;26523;52.504;13.498;2023-05-10T03:46:17;8.70;99.90
40808;DHT22;26523;52.504;13.498;2023-05-10T03:48:42;8.70;99.90
40808;DHT22;26523;52.504;13.498;2023-05-10T03:51:08;8.80;99.90
40808;DHT22;26523;52.504;13.498;2023-05-10T03:53:34;8.80;99.90
40808;DHT22;26523;52.504;13.498;2023-05-10T03:55:59;8.80;99.90
40808;DHT22;26523;52.504;13.498;2023-05-10T03:58:25;8.80;99.90
40808;DHT22;26523;52.504;13.498;2023-05-10T04:00:51;8.80;99.90
40808;DHT22;26523;52.504;13.498;2023-05-10T04:03:17;8.90;99.90
40808;DHT22;26523;52.504;13.498;2023-05-10T04:05:43;8.90;99.90
40808;DHT22;26523;52.504;13.498;2023-05-10T04:08:09;9.00;99.90
40808;DHT22;26523;52.504;13.498;2023-05-10T04:10:34;9.10;99.90
40808;DHT22;26523;52.504;13.498;2023-05-10T04:13:00;9.10;99.90
40808;DHT22;26523;52.504;13.498;2023-05-10T04:15:26;9.20;99.90
40808;DHT22;26523;52.504;13.498;2023-05-10T04:17:51;9.30;99.90
40808;DHT22;26523;52.504;13.498;2023-05-10T04:20:17;9.30;99.90
40808;DHT22;26523;52.504;13.498;2023-05-10T04:22:43;9.40;99.90
40808;DHT22;26523;52.504;13.498;2023-05-10T04:25:09;9.50;99.90
40808;DHT22;26523;52.504;13.498;2023-05-10T04:27:34;9.60;99.90
40808;DHT22;26523;52.504;13.498;2023-05-10T04:30:00;9.70;99.90
40808;DHT22;26523;52.504;13.498;2023-05-10T04:32:26;9.80;99.90
40808;DHT22;26523;52.504;13.498;2023-05-10T04:34:52;9.90;99.90
40808;DHT22;26523;52.504;13.498;2023-05-10T04:37:18;10.00;99.90
40808;DHT22;26523;52.504;13.498;2023-05-10T04:39:44;10.10;99.90
40808;DHT22;26523;52.504;13.498;2023-05-10T04:42:10;10.30;99.90
40808;DHT22;26523;52.504;13.498;2023-05-10T04:44:36;10.40;99.90
40808;DHT22;26523;52.504;13.498;2023-05-10T04:47:02;10.50;99.90
40808;DHT22;26523;52.504;13.498;2023-05-10T04:49:29;10.60;99.60
40808;DHT22;26523;52.504;13.498;2023-05-10T04:51:55;10.70;99.60
40808;DHT22;26523;52.504;13.498;2023-05-10T04:54:21;10.80;99.20
40808;DHT22;26523;52.504;13.498;2023-05-10T04:56:46;10.90;98.90
40808;DHT22;26523;52.504;13.498;2023-05-10T04:59:12;11.00;98.70
40808;DHT22;26523;52.504;13.498;2023-05-10T05:01:37;11.10;98.60
40808;DHT22;26523;52.504;13.498;2023-05-10T05:04:03;11.30;98.30
40808;DHT22;26523;52.504;13.498;2023-05-10T05:06:29;11.40;98.00
40808;DHT22;26523;52.504;13.498;2023-05-10T05:08:55;11.60;97.90
40808;DHT22;26523;52.504;13.498;2023-05-10T05:11:20;11.70;97.70
40808;DHT22;26523;52.504;13.498;2023-05-10T05:13:46;11.80;97.40
40808;DHT22;26523;52.504;13.498;2023-05-10T05:16:12;11.90;96.90
40808;DHT22;26523;52.504;13.498;2023-05-10T05:18:37;12.10;97.00
40808;DHT22;26523;52.504;13.498;2023-05-10T05:21:03;12.10;96.70
40808;DHT22;26523;52.504;13.498;2023-05-10T05:23:38;12.30;96.40
40808;DHT22;26523;52.504;13.498;2023-05-10T05:26:03;12.50;95.80
40808;DHT22;26523;52.504;13.498;2023-05-10T05:28:29;12.60;95.90
40808;DHT22;26523;52.504;13.498;2023-05-10T05:30:58;12.70;95.70
40808;DHT22;26523;52.504;13.498;2023-05-10T05:33:23;12.80;95.50
40808;DHT22;26523;52.504;13.498;2023-05-10T05:35:49;13.00;95.10
40808;DHT22;26523;52.504;13.498;2023-05-10T05:38:16;13.20;94.90
40808;DHT22;26523;52.504;13.498;2023-05-10T05:40:42;13.40;94.70
40808;DHT22;26523;52.504;13.498;2023-05-10T05:43:08;13.60;94.20
40808;DHT22;26523;52.504;13.498;2023-05-10T05:45:34;13.80;94.00
40808;DHT22;26523;52.504;13.498;2023-05-10T05:47:59;14.00;93.60
40808;DHT22;26523;52.504;13.498;2023-05-10T05:50:25;14.20;93.20
40808;DHT22;26523;52.504;13.498;2023-05-10T05:52:51;14.80;92.70
40808;DHT22;26523;52.504;13.498;2023-05-10T05:55:16;16.60;90.20
40808;DHT22;26523;52.504;13.498;2023-05-10T05:57:42;18.90;84.60
40808;DHT22;26523;52.504;13.498;2023-05-10T06:00:08;21.10;78.90
40808;DHT22;26523;52.504;13.498;2023-05-10T06:02:34;22.60;72.70
40808;DHT22;26523;52.504;13.498;2023-05-10T06:04:59;24.40;67.00
40808;DHT22;26523;52.504;13.498;2023-05-10T06:07:25;24.50;65.20
40808;DHT22;26523;52.504;13.498;2023-05-10T06:09:51;25.10;64.70
40808;DHT22;26523;52.504;13.498;2023-05-10T06:12:16;25.40;62.00
40808;DHT22;26523;52.504;13.498;2023-05-10T06:14:42;26.40;60.00
40808;DHT22;26523;52.504;13.498;2023-05-10T06:17:08;26.50;59.70
40808;DHT22;26523;52.504;13.498;2023-05-10T06:19:33;27.60;58.50
40808;DHT22;26523;52.504;13.498;2023-05-10T06:21:59;27.60;57.10
40808;DHT22;26523;52.504;13.498;2023-05-10T06:24:24;27.80;57.20
40808;DHT22;26523;52.504;13.498;2023-05-10T06:26:50;28.20;56.60
40808;DHT22;26523;52.504;13.498;2023-05-10T06:29:16;27.50;56.10
40808;DHT22;26523;52.504;13.498;2023-05-10T06:31:41;27.70;56.10
40808;DHT22;26523;52.504;13.498;2023-05-10T06:34:07;29.00;55.10
40808;DHT22;26523;52.504;13.498;2023-05-10T06:36:33;29.10;53.70
40808;DHT22;26523;52.504;13.498;2023-05-10T06:38:59;29.40;54.50
40808;DHT22;26523;52.504;13.498;2023-05-10T06:41:25;29.90;53.50
40808;DHT22;26523;52.504;13.498;2023-05-10T06:43:50;30.10;53.10
40808;DHT22;26523;52.504;13.498;2023-05-10T06:46:16;30.60;52.50
40808;DHT22;26523;52.504;13.498;2023-05-10T06:48:41;31.00;52.20
40808;DHT22;26523;52.504;13.498;2023-05-10T06:51:07;32.20;51.20
40808;DHT22;26523;52.504;13.498;2023-05-10T06:53:33;31.30;50.90
40808;DHT22;26523;52.504;13.498;2023-05-10T06:55:58;31.90;50.70
40808;DHT22;26523;52.504;13.498;2023-05-10T06:58:24;31.20;50.90
40808;DHT22;26523;52.504;13.498;2023-05-10T07:00:50;31.50;50.80
40808;DHT22;26523;52.504;13.498;2023-05-10T07:03:16;31.00;50.80
40808;DHT22;26523;52.504;13.498;2023-05-10T07:05:41;31.40;50.30
40808;DHT22;26523;52.504;13.498;2023-05-10T07:08:07;31.90;49.70
40808;DHT22;26523;52.504;13.498;2023-05-10T07:10:33;31.50;50.30
40808;DHT22;26523;52.504;13.498;2023-05-10T07:12:59;30.90;50.10
40808;DHT22;26523;52.504;13.498;2023-05-10T07:15:26;30.50;50.60
40808;DHT22;26523;52.504;13.498;2023-05-10T07:17:52;30.20;51.00
40808;DHT22;26523;52.504;13.498;2023-05-10T07:20:18;30.70;51.10
40808;DHT22;26523;52.504;13.498;2023-05-10T07:22:44;30.70;51.40
40808;DHT22;26523;52.504;13.498;2023-05-10T07:25:09;31.10;50.30
40808;DHT22;26523;52.504;13.498;2023-05-10T07:27:36;31.20;49.80
40808;DHT22;26523;52.504;13.498;2023-05-10T07:30:01;31.30;49.90
40808;DHT22;26523;52.504;13.498;2023-05-10T07:32:27;31.70;50.10
40808;DHT22;26523;52.504;13.498;2023-05-10T07:34:53;32.40;49.20
40808;DHT22;26523;52.504;13.498;2023-05-10T07:37:19;32.10;49.50
40808;DHT22;26523;52.504;13.498;2023-05-10T07:39:44;31.50;49.50
40808;DHT22;26523;52.504;13.498;2023-05-10T07:42:10;31.60;49.90
40808;DHT22;26523;52.504;13.498;2023-05-10T07:44:36;31.60;50.00
40808;DHT22;26523;52.504;13.498;2023-05-10T07:47:01;30.90;49.80
40808;DHT22;26523;52.504;13.498;2023-05-10T07:49:27;31.60;49.30
40808;DHT22;26523;52.504;13.498;2023-05-10T07:51:52;31.60;48.90
40808;DHT22;26523;52.504;13.498;2023-05-10T07:54:18;32.00;48.90
40808;DHT22;26523;52.504;13.498;2023-05-10T07:56:44;30.90;49.70
40808;DHT22;26523;52.504;13.498;2023-05-10T07:59:15;30.40;50.60
40808;DHT22;26523;52.504;13.498;2023-05-10T08:01:42;28.80;52.10
40808;DHT22;26523;52.504;13.498;2023-05-10T08:04:07;28.30;53.20
40808;DHT22;26523;52.504;13.498;2023-05-10T08:06:34;28.00;54.00
40808;DHT22;26523;52.504;13.498;2023-05-10T08:09:00;28.70;52.90
40808;DHT22;26523;52.504;13.498;2023-05-10T08:11:26;29.00;52.30
40808;DHT22;26523;52.504;13.498;2023-05-10T08:13:53;28.30;53.00
40808;DHT22;26523;52.504;13.498;2023-05-10T08:16:19;27.70;54.20
40808;DHT22;26523;52.504;13.498;2023-05-10T08:18:46;26.80;54.60
40808;DHT22;26523;52.504;13.498;2023-05-10T08:21:12;25.60;55.80
40808;DHT22;26523;52.504;13.498;2023-05-10T08:23:38;24.60;57.70
40808;DHT22;26523;52.504;13.498;2023-05-10T08:26:04;23.60;59.20
40808;DHT22;26523;52.504;13.498;2023-05-10T08:28:30;23.30;60.30
40808;DHT22;26523;52.504;13.498;2023-05-10T08:30:56;24.30;58.60
40808;DHT22;26523;52.504;13.498;2023-05-10T08:33:21;26.10;56.60
40808;DHT22;26523;52.504;13.498;2023-05-10T08:35:47;27.50;54.30
40808;DHT22;26523;52.504;13.498;2023-05-10T08:38:13;28.50;53.30
40808;DHT22;26523;52.504;13.498;2023-05-10T08:40:41;27.40;54.10
40808;DHT22;26523;52.504;13.498;2023-05-10T08:43:10;26.30;55.60
40808;DHT22;26523;52.504;13.498;2023-05-10T08:45:41;25.60;56.40
40808;DHT22;26523;52.504;13.498;2023-05-10T08:48:08;25.20;57.10
40808;DHT22;26523;52.504;13.498;2023-05-10T08:50:39;24.70;57.40
40808;DHT22;26523;52.504;13.498;2023-05-10T08:53:12;23.80;59.30
40808;DHT22;26523;52.504;13.498;2023-05-10T08:55:39;23.40;59.70
40808;DHT22;26523;52.504;13.498;2023-05-10T08:58:08;23.40;60.10
40808;DHT22;26523;52.504;13.498;2023-05-10T09:00:34;23.10;60.50
40808;DHT22;26523;52.504;13.498;2023-05-10T09:03:01;23.10;60.80
40808;DHT22;26523;52.504;13.498;2023-05-10T09:05:27;23.30;60.80
40808;DHT22;26523;52.504;13.498;2023-05-10T09:07:53;23.70;59.90
40808;DHT22;26523;52.504;13.498;2023-05-10T09:10:19;25.30;58.10
40808;DHT22;26523;52.504;13.498;2023-05-10T09:12:45;25.70;56.80
40808;DHT22;26523;52.504;13.498;2023-05-10T09:15:11;25.40;56.80
40808;DHT22;26523;52.504;13.498;2023-05-10T09:17:39;24.90;57.30
40808;DHT22;26523;52.504;13.498;2023-05-10T09:20:06;24.00;58.60
40808;DHT22;26523;52.504;13.498;2023-05-10T09:22:32;23.60;59.50
40808;DHT22;26523;52.504;13.498;2023-05-10T09:27:30;24.00;60.00
40808;DHT22;26523;52.504;13.498;2023-05-10T09:29:56;25.60;58.20
40808;DHT22;26523;52.504;13.498;2023-05-10T09:32:21;26.90;55.70
40808;DHT22;26523;52.504;13.498;2023-05-10T09:34:49;27.20;55.10
40808;DHT22;26523;52.504;13.498;2023-05-10T09:37:15;26.50;55.60
40808;DHT22;26523;52.504;13.498;2023-05-10T09:39:41;25.30;56.80
40808;DHT22;26523;52.504;13.498;2023-05-10T09:42:09;24.50;58.40
40808;DHT22;26523;52.504;13.498;2023-05-10T09:44:35;23.80;59.30
40808;DHT22;26523;52.504;13.498;2023-05-10T09:47:02;23.30;60.80
40808;DHT22;26523;52.504;13.498;2023-05-10T09:49:28;23.00;61.60
40808;DHT22;26523;52.504;13.498;2023-05-10T09:52:08;22.40;62.10
40808;DHT22;26523;52.504;13.498;2023-05-10T09:54:34;22.20;62.50
40808;DHT22;26523;52.504;13.498;2023-05-10T09:57:01;22.10;62.70
40808;DHT22;26523;52.504;13.498;2023-05-10T09:59:27;21.80;63.60
40808;DHT22;26523;52.504;13.498;2023-05-10T10:01:57;21.80;64.00
40808;DHT22;26523;52.504;13.498;2023-05-10T10:04:23;21.80;64.60
40808;DHT22;26523;52.504;13.498;2023-05-10T10:06:59;21.70;64.20
40808;DHT22;26523;52.504;13.498;2023-05-10T10:09:26;21.60;63.60
40808;DHT22;26523;52.504;13.498;2023-05-10T10:11:52;21.60;64.50
40808;DHT22;26523;52.504;13.498;2023-05-10T10:14:22;21.40;64.50
40808;DHT22;26523;52.504;13.498;2023-05-10T10:16:49;21.10;65.00
40808;DHT22;26523;52.504;13.498;2023-05-10T10:19:18;21.10;65.70
40808;DHT22;26523;52.504;13.498;2023-05-10T10:21:43;21.00;65.30
40808;DHT22;26523;52.504;13.498;2023-05-10T10:24:09;21.10;65.70
40808;DHT22;26523;52.504;13.498;2023-05-10T10:26:35;21.00;65.40
40808;DHT22;26523;52.504;13.498;2023-05-10T10:34:43;21.00;65.20
40808;DHT22;26523;52.504;13.498;2023-05-10T10:37:09;21.00;65.50
40808;DHT22;26523;52.504;13.498;2023-05-10T10:39:35;21.00;65.30
40808;DHT22;26523;52.504;13.498;2023-05-10T10:42:02;20.90;65.00
40808;DHT22;26523;52.504;13.498;2023-05-10T10:55:07;20.50;66.80
40808;DHT22;26523;52.504;13.498;2023-05-10T11:00:31;20.70;66.20
40808;DHT22;26523;52.504;13.498;2023-05-10T11:07:56;20.80;66.50
40808;DHT22;26523;52.504;13.498;2023-05-10T11:10:23;20.90;66.80
40808;DHT22;26523;52.504;13.498;2023-05-10T11:13:06;20.80;66.50
40808;DHT22;26523;52.504;13.498;2023-05-10T11:15:37;20.90;66.80
40808;DHT22;26523;52.504;13.498;2023-05-10T11:18:25;21.00;66.50
40808;DHT22;26523;52.504;13.498;2023-05-10T11:21:00;20.90;66.90
40808;DHT22;26523;52.504;13.498;2023-05-10T11:23:32;20.90;66.50
40808;DHT22;26523;52.504;13.498;2023-05-10T11:25:59;21.00;67.00
40808;DHT22;26523;52.504;13.498;2023-05-10T11:28:26;21.00;65.90
40808;DHT22;26523;52.504;13.498;2023-05-10T11:30:53;20.90;66.30
40808;DHT22;26523;52.504;13.498;2023-05-10T11:33:20;21.10;65.60
40808;DHT22;26523;52.504;13.498;2023-05-10T11:35:46;21.10;65.90
40808;DHT22;26523;52.504;13.498;2023-05-10T11:38:12;21.00;66.10
40808;DHT22;26523;52.504;13.498;2023-05-10T11:40:41;21.20;66.30
40808;DHT22;26523;52.504;13.498;2023-05-10T11:43:08;21.00;66.30
40808;DHT22;26523;52.504;13.498;2023-05-10T11:45:35;20.90;66.60
40808;DHT22;26523;52.504;13.498;2023-05-10T11:48:02;20.90;67.00
40808;DHT22;26523;52.504;13.498;2023-05-10T11:50:28;21.00;66.60
40808;DHT22;26523;52.504;13.498;2023-05-10T11:52:55;21.00;66.80
40808;DHT22;26523;52.504;13.498;2023-05-10T11:55:21;21.00;66.70
40808;DHT22;26523;52.504;13.498;2023-05-10T11:57:49;21.00;67.00
40808;DHT22;26523;52.504;13.498;2023-05-10T12:00:16;21.00;66.70
40808;DHT22;26523;52.504;13.498;2023-05-10T12:02:42;21.20;67.10
40808;DHT22;26523;52.504;13.498;2023-05-10T12:05:08;21.20;66.40
40808;DHT22;26523;52.504;13.498;2023-05-10T12:07:35;21.30;66.20
40808;DHT22;26523;52.504;13.498;2023-05-10T12:12:41;21.40;64.90
40808;DHT22;26523;52.504;13.498;2023-05-10T12:15:21;21.40;64.60
40808;DHT22;26523;52.504;13.498;2023-05-10T12:17:47;21.30;65.20
40808;DHT22;26523;52.504;13.498;2023-05-10T12:20:21;21.40;64.70
40808;DHT22;26523;52.504;13.498;2023-05-10T12:22:52;21.40;63.80
40808;DHT22;26523;52.504;13.498;2023-05-10T12:25:18;21.30;63.30
40808;DHT22;26523;52.504;13.498;2023-05-10T12:27:53;21.30;63.30
40808;DHT22;26523;52.504;13.498;2023-05-10T12:30:26;21.30;63.80
40808;DHT22;26523;52.504;13.498;2023-05-10T12:32:53;21.40;64.40
40808;DHT22;26523;52.504;13.498;2023-05-10T12:35:19;21.50;63.70
40808;DHT22;26523;52.504;13.498;2023-05-10T12:37:52;21.50;62.60
40808;DHT22;26523;52.504;13.498;2023-05-10T12:40:18;21.50;62.70
40808;DHT22;26523;52.504;13.498;2023-05-10T12:42:43;21.50;62.90
40808;DHT22;26523;52.504;13.498;2023-05-10T12:45:12;21.50;63.10
40808;DHT22;26523;52.504;13.498;2023-05-10T12:47:38;21.50;63.20
40808;DHT22;26523;52.504;13.498;2023-05-10T12:50:04;21.60;62.50
40808;DHT22;26523;52.504;13.498;2023-05-10T12:52:31;21.60;61.40
40808;DHT22;26523;52.504;13.498;2023-05-10T12:55:00;21.60;61.80
40808;DHT22;26523;52.504;13.498;2023-05-10T12:57:26;21.70;60.90
40808;DHT22;26523;52.504;13.498;2023-05-10T12:59:53;21.70;60.80
40808;DHT22;26523;52.504;13.498;2023-05-10T13:02:19;21.60;60.90
40808;DHT22;26523;52.504;13.498;2023-05-10T13:04:45;21.60;61.30
40808;DHT22;26523;52.504;13.498;2023-05-10T13:07:12;21.70;62.10
40808;DHT22;26523;52.504;13.498;2023-05-10T13:09:38;21.70;61.80
40808;DHT22;26523;52.504;13.498;2023-05-10T13:12:03;21.70;62.20
40808;DHT22;26523;52.504;13.498;2023-05-10T13:14:29;21.80;61.90
40808;DHT22;26523;52.504;13.498;2023-05-10T13:16:55;21.90;62.10
40808;DHT22;26523;52.504;13.498;2023-05-10T13:19:21;21.90;62.30
40808;DHT22;26523;52.504;13.498;2023-05-10T13:21:46;21.80;62.40
40808;DHT22;26523;52.504;13.498;2023-05-10T13:24:12;21.90;61.90
40808;DHT22;26523;52.504;13.498;2023-05-10T13:26:41;21.90;61.50
40808;DHT22;26523;52.504;13.498;2023-05-10T13:29:07;21.90;60.90
40808;DHT22;26523;52.504;13.498;2023-05-10T13:31:34;22.00;60.30
40808;DHT22;26523;52.504;13.498;2023-05-10T13:34:00;22.00;59.80
40808;DHT22;26523;52.504;13.498;2023-05-10T13:36:25;22.00;60.00
40808;DHT22;26523;52.504;13.498;2023-05-10T13:38:51;22.00;60.10
40808;DHT22;26523;52.504;13.498;2023-05-10T13:41:17;22.10;60.90
40808;DHT22;26523;52.504;13.498;2023-05-10T13:43:43;22.00;60.90
40808;DHT22;26523;52.504;13.498;2023-05-10T13:46:09;22.10;61.20
40808;DHT22;26523;52.504;13.498;2023-05-10T13:48:34;22.00;61.40
40808;DHT22;26523;52.504;13.498;2023-05-10T13:51:02;22.20;61.50
40808;DHT22;26523;52.504;13.498;2023-05-10T13:53:27;22.30;61.60
40808;DHT22;26523;52.504;13.498;2023-05-10T13:55:53;22.40;62.00
40808;DHT22;26523;52.504;13.498;2023-05-10T13:58:19;22.50;61.90
40808;DHT22;26523;52.504;13.498;2023-05-10T14:00:44;22.50;61.90
40808;DHT22;26523;52.504;13.498;2023-05-10T14:03:10;22.50;61.80
40808;DHT22;26523;52.504;13.498;2023-05-10T14:05:36;22.50;61.00
40808;DHT22;26523;52.504;13.498;2023-05-10T14:08:02;22.40;60.90
40808;DHT22;26523;52.504;13.498;2023-05-10T14:10:28;22.40;61.50
40808;DHT22;26523;52.504;13.498;2023-05-10T14:12:53;22.40;60.70
40808;DHT22;26523;52.504;13.498;2023-05-10T14:15:19;22.40;60.90
40808;DHT22;26523;52.504;13.498;2023-05-10T14:17:44;22.40;61.10
40808;DHT22;26523;52.504;13.498;2023-05-10T14:20:10;22.50;61.00
40808;DHT22;26523;52.504;13.498;2023-05-10T14:22:36;22.40;60.70
40808;DHT22;26523;52.504;13.498;2023-05-10T14:25:02;22.60;60.40
40808;DHT22;26523;52.504;13.498;2023-05-10T14:27:28;22.70;61.00
40808;DHT22;26523;52.504;13.498;2023-05-10T14:29:53;22.80;60.10
40808;DHT22;26523;52.504;13.498;2023-05-10T14:32:19;22.80;60.00
40808;DHT22;26523;52.504;13.498;2023-05-10T14:34:45;23.00;60.30
40808;DHT22;26523;52.504;13.498;2023-05-10T14:37:11;23.00;58.60
40808;DHT22;26523;52.504;13.498;2023-05-10T14:39:37;22.80;59.00
40808;DHT22;26523;52.504;13.498;2023-05-10T14:42:03;22.80;59.40
40808;DHT22;26523;52.504;13.498;2023-05-10T14:44:29;22.70;60.00
40808;DHT22;26523;52.504;13.498;2023-05-10T14:46:55;22.80;60.50
40808;DHT22;26523;52.504;13.498;2023-05-10T14:49:22;22.70;60.30
40808;DHT22;26523;52.504;13.498;2023-05-10T14:51:50;22.80;60.30
40808;DHT22;26523;52.504;13.498;2023-05-10T14:54:15;22.70;60.00
40808;DHT22;26523;52.504;13.498;2023-05-10T14:56:41;22.70;59.50
40808;DHT22;26523;52.504;13.498;2023-05-10T14:59:07;22.90;59.60
40808;DHT22;26523;52.504;13.498;2023-05-10T15:01:33;22.90;59.30
40808;DHT22;26523;52.504;13.498;2023-05-10T15:04:05;22.90;58.70
40808;DHT22;26523;52.504;13.498;2023-05-10T15:06:32;22.80;59.00
40808;DHT22;26523;52.504;13.498;2023-05-10T15:08:59;22.70;59.70
40808;DHT22;26523;52.504;13.498;2023-05-10T15:11:25;22.70;59.60
40808;DHT22;26523;52.504;13.498;2023-05-10T15:13:51;22.70;59.40
40808;DHT22;26523;52.504;13.498;2023-05-10T15:16:17;22.80;58.80
40808;DHT22;26523;52.504;13.498;2023-05-10T15:18:43;22.80;58.90
40808;DHT22;26523;52.504;13.498;2023-05-10T15:21:09;22.80;58.60
40808;DHT22;26523;52.504;13.498;2023-05-10T15:23:34;22.80;58.80
40808;DHT22;26523;52.504;13.498;2023-05-10T15:26:00;22.80;59.00
40808;DHT22;26523;52.504;13.498;2023-05-10T15:28:26;22.80;59.40
40808;DHT22;26523;52.504;13.498;2023-05-10T15:30:52;22.80;59.70
40808;DHT22;26523;52.504;13.498;2023-05-10T15:33:17;23.00;59.50
40808;DHT22;26523;52.504;13.498;2023-05-10T15:35:43;23.00;60.00
40808;DHT22;26523;52.504;13.498;2023-05-10T15:38:09;23.10;60.00
40808;DHT22;26523;52.504;13.498;2023-05-10T15:40:35;23.00;60.40
40808;DHT22;26523;52.504;13.498;2023-05-10T15:43:00;22.80;60.80
40808;DHT22;26523;52.504;13.498;2023-05-10T15:45:26;22.90;60.40
40808;DHT22;26523;52.504;13.498;2023-05-10T15:47:52;23.00;60.40
40808;DHT22;26523;52.504;13.498;2023-05-10T15:50:17;23.10;60.20
40808;DHT22;26523;52.504;13.498;2023-05-10T15:52:43;23.00;60.30
40808;DHT22;26523;52.504;13.498;2023-05-10T15:55:09;23.10;60.20
40808;DHT22;26523;52.504;13.498;2023-05-10T15:57:41;23.00;60.60